createdAt,value
2019-05-06T00:00:25.527Z,7.50
2019-05-06T00:02:54.689Z,8.48
2019-05-06T00:05:25.505Z,7.33
2019-05-06T00:07:54.734Z,7.62
2019-05-06T00:10:26.515Z,7.10
2019-05-06T00:12:55.777Z,7.62
2019-05-06T00:15:24.658Z,6.80
2019-05-06T00:17:54.020Z,7.28
2019-05-06T00:20:24.267Z,7.65
2019-05-06T00:22:54.991Z,7.10
2019-05-06T00:25:44.197Z,7.20
2019-05-06T00:28:29.792Z,7.37
2019-05-06T00:31:12.181Z,6.72
2019-05-06T00:33:30.633Z,7.30
2019-05-06T00:36:00.583Z,6.75
2019-05-06T00:38:29.440Z,7.47
2019-05-06T00:40:59.938Z,7.58
2019-05-06T00:43:28.709Z,6.58
2019-05-06T00:45:57.526Z,7.42
2019-05-06T00:48:26.457Z,7.12
2019-05-06T00:50:55.556Z,7.22
2019-05-06T00:53:26.098Z,7.03
2019-05-06T00:55:55.184Z,7.62
2019-05-06T00:58:24.078Z,7.20
2019-05-06T01:00:53.780Z,7.22
2019-05-06T01:03:23.933Z,7.62
2019-05-06T01:05:54.266Z,7.60
2019-05-06T01:08:23.957Z,7.53
2019-05-06T01:10:54.536Z,7.75
2019-05-06T01:13:31.211Z,7.37
2019-05-06T01:15:59.979Z,7.65
2019-05-06T01:18:28.828Z,7.15
2019-05-06T01:21:14.505Z,8.55
2019-05-06T01:23:44.551Z,8.95
2019-05-06T01:26:15.329Z,8.05
2019-05-06T01:28:45.561Z,7.95
2019-05-06T01:31:14.531Z,8.38
2019-05-06T01:33:45.242Z,8.60
2019-05-06T01:36:14.248Z,8.10
2019-05-06T01:38:54.567Z,8.05
2019-05-06T01:41:34.204Z,7.28
2019-05-06T01:44:04.227Z,7.42
2019-05-06T01:46:34.009Z,8.73
2019-05-06T01:49:04.303Z,8.45
2019-05-06T01:51:34.753Z,7.72
2019-05-06T01:54:04.114Z,7.72
2019-05-06T01:56:33.686Z,8.40
2019-05-06T01:59:04.544Z,7.72
2019-05-06T02:01:34.158Z,7.53
2019-05-06T02:04:04.428Z,8.25
2019-05-06T02:06:34.363Z,8.25
2019-05-06T02:09:05.047Z,8.18
2019-05-06T02:11:33.941Z,8.55
2019-05-06T02:14:04.815Z,7.67
2019-05-06T02:16:34.363Z,8.23
2019-05-06T02:19:04.085Z,7.87
2019-05-06T02:21:34.855Z,7.80
2019-05-06T02:24:14.478Z,7.47
2019-05-06T02:26:43.760Z,7.58
2019-05-06T02:29:15.200Z,7.83
2019-05-06T02:31:54.624Z,7.15
2019-05-06T02:34:36.750Z,8.73
2019-05-06T02:37:10.443Z,8.15
2019-05-06T02:39:39.226Z,7.92
2019-05-06T02:42:08.417Z,8.45
2019-05-06T02:44:37.284Z,8.03
2019-05-06T02:47:07.692Z,7.67
2019-05-06T02:49:38.149Z,7.50
2019-05-06T02:52:06.966Z,9.10
2019-05-06T02:54:35.790Z,7.78
2019-05-06T02:57:04.918Z,8.05
2019-05-06T02:59:33.715Z,7.97
2019-05-06T03:02:03.296Z,7.70
2019-05-06T03:04:33.364Z,8.53
2019-05-06T03:07:03.710Z,8.25
2019-05-06T03:09:34.002Z,7.30
2019-05-06T03:12:03.747Z,7.17
2019-05-06T03:14:34.609Z,8.25
2019-05-06T03:17:03.900Z,8.50
2019-05-06T03:19:34.573Z,8.38
2019-05-06T03:22:14.325Z,8.55
2019-05-06T03:24:48.885Z,7.58
2019-05-06T03:27:17.834Z,7.33
2019-05-06T03:29:46.654Z,7.22
2019-05-06T03:32:22.119Z,8.10
2019-05-06T03:35:16.296Z,7.70
2019-05-06T03:37:17.381Z,8.35
2019-05-06T03:39:46.527Z,7.70
2019-05-06T03:42:16.721Z,7.33
2019-05-06T03:44:47.555Z,7.35
2019-05-06T03:47:29.952Z,7.47
2019-05-06T03:49:58.843Z,7.60
2019-05-06T03:52:29.755Z,8.40
2019-05-06T03:54:59.712Z,7.65
2019-05-06T03:57:29.280Z,8.48
2019-05-06T04:00:00.022Z,8.80
2019-05-06T04:02:29.315Z,8.55
2019-05-06T04:04:58.125Z,9.13
2019-05-06T04:07:28.121Z,9.35
2019-05-06T04:09:56.904Z,8.85
2019-05-06T04:12:27.136Z,8.78
2019-05-06T04:14:56.679Z,9.18
2019-05-06T04:17:29.124Z,9.33
2019-05-06T04:19:59.509Z,8.65
2019-05-06T04:22:35.972Z,9.38
2019-05-06T04:25:13.779Z,9.28
2019-05-06T04:27:43.353Z,9.15
2019-05-06T04:30:13.542Z,9.48
2019-05-06T04:32:43.477Z,8.80
2019-05-06T04:35:13.551Z,8.75
2019-05-06T04:37:43.114Z,8.73
2019-05-06T04:40:13.046Z,8.45
2019-05-06T04:42:44.450Z,9.10
2019-05-06T04:45:17.193Z,9.98
2019-05-06T04:47:43.673Z,8.93
2019-05-06T04:50:13.349Z,9.33
2019-05-06T04:52:43.219Z,9.15
2019-05-06T04:55:13.970Z,9.78
2019-05-06T04:57:44.094Z,9.38
2019-05-06T05:00:13.536Z,9.70
2019-05-06T05:02:45.879Z,8.90
2019-05-06T05:05:13.878Z,9.75
2019-05-06T05:07:43.214Z,9.78
2019-05-06T05:10:19.916Z,9.10
2019-05-06T05:12:53.521Z,10.03
2019-05-06T05:15:41.786Z,9.35
2019-05-06T05:18:12.990Z,9.35
2019-05-06T05:20:46.524Z,8.95
2019-05-06T05:23:12.595Z,10.15
2019-05-06T05:25:42.537Z,9.73
2019-05-06T05:28:13.129Z,9.93
2019-05-06T05:30:42.961Z,10.78
2019-05-06T05:33:12.507Z,9.55
2019-05-06T05:35:43.287Z,10.05
2019-05-06T05:38:13.027Z,10.10
2019-05-06T05:40:43.040Z,9.73
2019-05-06T05:43:32.513Z,9.20
2019-05-06T05:46:02.767Z,9.65
2019-05-06T05:48:38.113Z,10.75
2019-05-06T05:51:06.946Z,12.85
2019-05-06T05:53:35.830Z,10.03
2019-05-06T05:56:05.008Z,9.58
2019-05-06T05:58:34.336Z,10.20
2019-05-06T06:01:05.017Z,10.40
2019-05-06T06:03:33.778Z,10.28
2019-05-06T06:06:03.037Z,10.13
2019-05-06T06:08:32.314Z,9.85
2019-05-06T06:11:04.280Z,10.32
2019-05-06T06:13:33.238Z,9.75
2019-05-06T06:16:23.245Z,12.70
2019-05-06T06:18:56.819Z,10.63
2019-05-06T06:23:58.509Z,9.78
2019-05-06T06:26:27.338Z,10.18
2019-05-06T06:28:56.189Z,10.58
2019-05-06T06:31:26.642Z,10.53
2019-05-06T06:33:57.082Z,11.15
2019-05-06T06:36:32.501Z,9.83
2019-05-06T06:39:08.372Z,10.40
2019-05-06T06:41:38.580Z,9.30
2019-05-06T06:44:17.914Z,11.30
2019-05-06T06:46:46.880Z,14.18
2019-05-06T06:49:15.759Z,10.58
2019-05-06T06:51:44.753Z,10.03
2019-05-06T06:54:13.748Z,9.75
2019-05-06T06:56:47.400Z,11.22
2019-05-06T06:59:31.872Z,10.55
2019-05-06T07:02:08.405Z,10.45
2019-05-06T07:04:43.100Z,10.15
2019-05-06T07:07:13.187Z,9.73
2019-05-06T07:09:42.053Z,10.25
2019-05-06T07:12:13.191Z,11.53
2019-05-06T07:14:42.803Z,9.80
2019-05-06T07:17:13.328Z,10.13
2019-05-06T07:19:46.616Z,9.90
2019-05-06T07:22:17.221Z,10.75
2019-05-06T07:24:46.060Z,9.70
2019-05-06T07:27:19.316Z,11.25
2019-05-06T07:29:48.783Z,10.93
2019-05-06T07:32:17.685Z,9.70
2019-05-06T07:34:46.586Z,10.32
2019-05-06T07:37:15.516Z,10.48
2019-05-06T07:39:44.402Z,9.38
2019-05-06T07:42:17.474Z,9.55
2019-05-06T07:44:48.021Z,9.13
2019-05-06T07:47:18.530Z,8.93
2019-05-06T07:49:47.355Z,9.45
2019-05-06T07:52:17.314Z,8.25
2019-05-06T07:54:46.710Z,8.35
2019-05-06T07:57:15.743Z,9.00
2019-05-06T07:59:44.535Z,9.10
2019-05-06T08:02:13.357Z,8.08
2019-05-06T08:04:42.257Z,8.78
2019-05-06T08:07:12.588Z,9.23
2019-05-06T08:09:42.283Z,8.90
2019-05-06T08:12:12.374Z,9.33
2019-05-06T08:14:42.956Z,8.63
2019-05-06T08:17:14.985Z,8.45
2019-05-06T08:19:43.850Z,8.20
2019-05-06T08:22:17.272Z,8.35
2019-05-06T08:27:14.238Z,8.35
2019-05-06T08:29:43.128Z,10.10
2019-05-06T08:32:12.336Z,8.05
2019-05-06T08:34:44.286Z,9.18
2019-05-06T08:37:14.789Z,8.33
2019-05-06T08:39:45.981Z,8.38
2019-05-06T08:42:14.481Z,9.30
2019-05-06T08:44:43.562Z,8.55
2019-05-06T08:47:13.268Z,9.28
2019-05-06T08:50:02.422Z,8.95
2019-05-06T08:52:32.871Z,9.43
2019-05-06T08:55:02.913Z,9.65
2019-05-06T08:57:33.993Z,9.65
2019-05-06T09:00:03.414Z,9.50
2019-05-06T09:02:32.615Z,8.43
2019-05-06T09:05:02.899Z,8.13
2019-05-06T09:07:32.167Z,9.98
2019-05-06T09:10:02.603Z,18.23
2019-05-06T09:12:32.937Z,35.03
2019-05-06T09:15:03.486Z,21.07
2019-05-06T09:17:33.004Z,8.73
2019-05-06T09:20:02.648Z,8.60
2019-05-06T09:22:32.620Z,8.70
2019-05-06T09:25:02.507Z,10.25
2019-05-06T09:27:48.326Z,8.25
2019-05-06T09:30:22.789Z,8.20
2019-05-06T09:32:52.128Z,7.83
2019-05-06T09:35:22.175Z,8.43
2019-05-06T09:37:53.417Z,9.05
2019-05-06T09:40:22.736Z,9.13
2019-05-06T09:42:52.190Z,9.35
2019-05-06T09:45:22.777Z,9.15
2019-05-06T09:48:05.462Z,8.70
2019-05-06T09:50:38.028Z,24.02
2019-05-06T09:53:08.481Z,11.07
2019-05-06T09:55:43.034Z,8.95
2019-05-06T09:58:12.369Z,9.70
2019-05-06T10:00:43.116Z,8.98
2019-05-06T10:03:12.070Z,9.05
2019-05-06T10:05:42.490Z,9.10
2019-05-06T10:08:12.413Z,8.95
2019-05-06T10:10:55.350Z,9.93
2019-05-06T10:13:12.839Z,8.83
2019-05-06T10:15:42.916Z,9.13
2019-05-06T10:18:13.133Z,9.33
2019-05-06T10:20:44.555Z,9.93
2019-05-06T10:23:14.034Z,8.68
2019-05-06T10:25:43.821Z,8.18
2019-05-06T10:28:33.225Z,8.18
2019-05-06T10:31:02.128Z,7.97
2019-05-06T10:33:32.644Z,8.25
2019-05-06T10:36:04.883Z,8.18
2019-05-06T10:38:48.410Z,7.67
2019-05-06T10:41:32.820Z,18.67
2019-05-06T10:44:26.039Z,12.78
2019-05-06T10:46:54.897Z,12.80
2019-05-06T10:49:23.727Z,17.35
2019-05-06T10:51:56.986Z,9.15
2019-05-06T10:57:12.539Z,16.15
2019-05-06T10:59:42.929Z,13.68
2019-05-06T11:02:16.400Z,10.45
2019-05-06T11:04:45.304Z,9.65
2019-05-06T11:07:28.264Z,7.72
2019-05-06T11:09:44.656Z,10.95
2019-05-06T11:12:13.510Z,7.42
2019-05-06T11:14:42.315Z,7.30
2019-05-06T11:17:12.561Z,7.33
2019-05-06T11:19:42.776Z,8.13
2019-05-06T11:22:12.847Z,7.78
2019-05-06T11:24:42.147Z,6.87
2019-05-06T11:27:25.265Z,7.67
2019-05-06T11:29:46.271Z,8.23
2019-05-06T11:32:25.350Z,7.53
2019-05-06T11:35:12.337Z,7.22
2019-05-06T11:37:50.505Z,6.28
2019-05-06T11:40:16.968Z,6.62
2019-05-06T11:42:46.202Z,7.12
2019-05-06T11:45:15.452Z,7.15
2019-05-06T11:47:44.305Z,7.20
2019-05-06T11:50:13.710Z,7.62
2019-05-06T11:52:43.287Z,8.38
2019-05-06T11:55:21.225Z,7.53
2019-05-06T11:57:44.802Z,8.53
2019-05-06T12:00:16.119Z,8.95
2019-05-06T12:02:48.411Z,9.05
2019-05-06T12:05:15.481Z,9.08
2019-05-06T12:08:01.086Z,8.70
2019-05-06T12:10:16.251Z,9.35
2019-05-06T12:12:45.100Z,8.73
2019-05-06T12:15:13.938Z,10.03
2019-05-06T12:17:42.859Z,10.48
2019-05-06T12:20:13.123Z,10.40
2019-05-06T12:22:42.474Z,9.25
2019-05-06T12:25:15.219Z,9.33
2019-05-06T12:27:45.427Z,9.68
2019-05-06T12:30:20.195Z,9.80
2019-05-06T12:32:52.687Z,9.95
2019-05-06T12:35:21.198Z,10.43
2019-05-06T12:37:53.091Z,10.00
2019-05-06T12:40:22.158Z,9.00
2019-05-06T12:42:53.462Z,7.85
2019-05-06T12:45:27.313Z,7.47
2019-05-06T12:47:57.782Z,7.78
2019-05-06T12:50:26.707Z,7.92
2019-05-06T12:52:57.700Z,7.85
2019-05-06T12:55:26.380Z,8.23
2019-05-06T12:57:55.554Z,8.48
2019-05-06T13:00:25.321Z,8.40
2019-05-06T13:02:54.171Z,8.33
2019-05-06T13:05:23.442Z,10.88
2019-05-06T13:07:52.805Z,8.48
2019-05-06T13:10:23.217Z,6.55
2019-05-06T13:12:54.439Z,6.97
2019-05-06T13:15:24.329Z,6.97
2019-05-06T13:17:53.726Z,7.20
2019-05-06T13:20:23.009Z,9.55
2019-05-06T13:22:59.752Z,8.98
2019-05-06T13:25:28.757Z,7.67
2019-05-06T13:27:57.523Z,8.68
2019-05-06T13:30:26.441Z,7.67
2019-05-06T13:32:57.105Z,9.15
2019-05-06T13:35:26.127Z,8.53
2019-05-06T13:37:54.971Z,9.48
2019-05-06T13:40:26.885Z,9.30
2019-05-06T13:43:07.878Z,9.03
2019-05-06T13:45:36.784Z,9.13
2019-05-06T13:48:07.272Z,9.20
2019-05-06T13:50:41.891Z,8.60
2019-05-06T13:53:13.995Z,9.13
2019-05-06T13:55:42.846Z,8.78
2019-05-06T13:58:12.572Z,8.35
2019-05-06T14:00:42.603Z,7.60
2019-05-06T14:03:11.629Z,7.95
2019-05-06T14:05:42.372Z,8.90
2019-05-06T14:08:12.973Z,9.20
2019-05-06T14:10:42.381Z,10.30
2019-05-06T14:13:12.864Z,8.93
2019-05-06T14:15:42.184Z,9.60
2019-05-06T14:18:13.446Z,9.75
2019-05-06T14:20:42.889Z,9.18
2019-05-06T14:23:13.053Z,9.45
2019-05-06T14:26:04.162Z,9.95
2019-05-06T14:28:36.360Z,10.20
2019-05-06T14:31:09.999Z,10.63
2019-05-06T14:33:38.813Z,10.72
2019-05-06T14:36:07.636Z,10.40
2019-05-06T14:38:36.487Z,10.90
2019-05-06T14:41:08.620Z,9.60
2019-05-06T14:43:38.210Z,10.35
2019-05-06T14:46:08.151Z,9.65
2019-05-06T14:48:37.031Z,9.80
2019-05-06T14:51:05.840Z,9.63
2019-05-06T14:53:34.610Z,9.88
2019-05-06T14:56:05.463Z,9.60
2019-05-06T14:58:34.240Z,9.40
2019-05-06T15:01:03.675Z,9.48
2019-05-06T15:03:34.922Z,10.10
2019-05-06T15:06:16.062Z,11.03
2019-05-06T15:08:44.349Z,10.58
2019-05-06T15:11:13.181Z,10.80
2019-05-06T15:13:42.707Z,10.23
2019-05-06T15:16:13.226Z,9.88
2019-05-06T15:18:42.435Z,9.70
2019-05-06T15:21:30.209Z,10.20
2019-05-06T15:23:42.448Z,10.32
2019-05-06T15:26:12.302Z,10.03
2019-05-06T15:28:44.067Z,10.90
2019-05-06T15:31:31.125Z,15.03
2019-05-06T15:34:13.534Z,10.50
2019-05-06T15:37:02.506Z,10.35
2019-05-06T15:39:32.350Z,10.78
2019-05-06T15:42:01.544Z,13.70
2019-05-06T15:44:32.693Z,10.20
2019-05-06T15:47:03.190Z,11.22
2019-05-06T15:49:32.371Z,10.80
2019-05-06T15:52:03.674Z,11.35
2019-05-06T15:54:32.269Z,10.95
2019-05-06T15:57:01.301Z,11.10
2019-05-06T15:59:33.082Z,11.08
2019-05-06T16:02:03.039Z,10.93
2019-05-06T16:04:33.030Z,13.70
2019-05-06T16:07:02.851Z,11.22
2019-05-06T16:09:32.906Z,11.35
2019-05-06T16:12:02.990Z,10.65
2019-05-06T16:14:35.004Z,10.93
2019-05-06T16:17:04.829Z,12.28
2019-05-06T16:19:33.934Z,12.47
2019-05-06T16:22:04.072Z,11.45
2019-05-06T16:24:35.297Z,10.90
2019-05-06T16:27:04.383Z,10.20
2019-05-06T16:29:36.017Z,11.28
2019-05-06T16:32:06.314Z,12.23
2019-05-06T16:34:35.210Z,11.40
2019-05-06T16:37:03.964Z,12.28
2019-05-06T16:39:33.237Z,11.63
2019-05-06T16:42:03.635Z,12.53
2019-05-06T16:44:32.784Z,12.03
2019-05-06T16:47:02.869Z,11.85
2019-05-06T16:49:33.190Z,13.08
2019-05-06T16:52:02.755Z,13.08
2019-05-06T16:54:34.502Z,11.53
2019-05-06T16:57:10.941Z,11.28
2019-05-06T16:59:42.310Z,10.32
2019-05-06T17:02:13.911Z,10.45
2019-05-06T17:04:47.060Z,9.93
2019-05-06T17:09:44.105Z,10.00
2019-05-06T17:12:13.015Z,10.82
2019-05-06T17:14:42.801Z,10.05
2019-05-06T17:17:11.864Z,10.82
2019-05-06T17:19:42.253Z,10.45
2019-05-06T17:22:13.523Z,10.25
2019-05-06T17:24:42.272Z,10.75
2019-05-06T17:27:12.095Z,11.48
2019-05-06T17:29:42.947Z,10.23
2019-05-06T17:32:16.367Z,10.55
2019-05-06T17:34:46.814Z,10.00
2019-05-06T17:37:36.874Z,10.03
2019-05-06T17:40:10.590Z,10.00
2019-05-06T17:42:37.492Z,10.65
2019-05-06T17:45:26.645Z,10.93
2019-05-06T17:47:57.147Z,11.12
2019-05-06T17:50:28.489Z,10.82
2019-05-06T17:52:57.382Z,11.18
2019-05-06T17:55:26.208Z,10.58
2019-05-06T17:57:55.023Z,10.68
2019-05-06T18:00:32.202Z,10.55
2019-05-06T18:03:02.349Z,10.32
2019-05-06T18:05:32.439Z,11.70
2019-05-06T18:08:02.932Z,11.38
2019-05-06T18:10:33.486Z,10.38
2019-05-06T18:13:03.059Z,11.75
2019-05-06T18:15:32.660Z,11.25
2019-05-06T18:18:02.187Z,9.68
2019-05-06T18:20:33.523Z,10.25
2019-05-06T18:23:02.167Z,9.83
2019-05-06T18:25:32.846Z,11.78
2019-05-06T18:28:01.785Z,11.83
2019-05-06T18:30:34.314Z,9.28
2019-05-06T18:33:02.285Z,7.33
2019-05-06T18:35:33.048Z,8.35
2019-05-06T18:38:02.989Z,6.17
2019-05-06T18:40:33.152Z,5.72
2019-05-06T18:43:02.368Z,6.17
2019-05-06T18:45:33.266Z,6.55
2019-05-06T18:48:02.814Z,6.35
2019-05-06T18:50:32.138Z,6.72
2019-05-06T18:53:02.456Z,7.70
2019-05-06T18:55:33.071Z,6.80
2019-05-06T18:58:02.361Z,6.40
2019-05-06T19:00:32.032Z,7.17
2019-05-06T19:03:02.690Z,6.50
2019-05-06T19:05:42.935Z,6.00
2019-05-06T19:08:35.773Z,6.22
2019-05-06T19:11:12.867Z,6.90
2019-05-06T19:13:52.695Z,7.05
2019-05-06T19:16:22.306Z,6.37
2019-05-06T19:18:52.187Z,6.55
2019-05-06T19:21:24.328Z,6.83
2019-05-06T19:23:54.604Z,6.85
2019-05-06T19:26:22.440Z,9.83
2019-05-06T19:28:52.657Z,7.55
2019-05-06T19:31:22.919Z,6.90
2019-05-06T19:33:52.730Z,6.58
2019-05-06T19:36:23.550Z,6.58
2019-05-06T19:38:52.975Z,7.65
2019-05-06T19:41:22.332Z,7.53
2019-05-06T19:43:53.303Z,7.50
2019-05-06T19:46:25.706Z,7.15
2019-05-06T19:48:54.689Z,7.47
2019-05-06T19:51:23.641Z,7.78
2019-05-06T19:53:52.437Z,7.62
2019-05-06T19:56:23.856Z,7.70
2019-05-06T19:58:57.886Z,7.90
2019-05-06T20:01:26.974Z,7.97
2019-05-06T20:04:16.599Z,7.05
2019-05-06T20:06:45.787Z,8.63
2019-05-06T20:09:43.782Z,8.05
2019-05-06T20:12:12.338Z,7.08
2019-05-06T20:14:41.882Z,6.60
2019-05-06T20:17:22.174Z,6.85
2019-05-06T20:19:49.208Z,6.97
2019-05-06T20:22:23.060Z,6.30
2019-05-06T20:25:21.938Z,6.12
2019-05-06T20:27:47.386Z,7.05
2019-05-06T20:30:23.685Z,7.00
2019-05-06T20:32:55.319Z,6.72
2019-05-06T20:35:25.786Z,6.22
2019-05-06T20:37:54.673Z,6.78
2019-05-06T20:40:23.530Z,6.42
2019-05-06T20:42:52.438Z,5.75
2019-05-06T20:45:22.364Z,6.90
2019-05-06T20:47:53.062Z,5.97
2019-05-06T20:50:22.587Z,5.75
2019-05-06T20:52:52.124Z,5.62
2019-05-06T20:55:24.075Z,5.97
2019-05-06T20:57:53.092Z,6.95
2019-05-06T21:00:29.810Z,6.75
2019-05-06T21:02:58.888Z,7.20
2019-05-06T21:05:27.840Z,7.55
2019-05-06T21:07:56.698Z,8.70
2019-05-06T21:10:25.553Z,7.62
2019-05-06T21:12:54.385Z,7.50
2019-05-06T21:15:23.175Z,9.50
2019-05-06T21:17:52.005Z,8.38
2019-05-06T21:20:20.915Z,8.70
2019-05-06T21:22:52.782Z,7.92
2019-05-06T21:25:22.599Z,8.03
2019-05-06T21:27:53.225Z,8.35
2019-05-06T21:30:24.423Z,7.53
2019-05-06T21:32:54.778Z,7.72
2019-05-06T21:35:33.179Z,8.63
2019-05-06T21:38:02.564Z,7.78
2019-05-06T21:40:32.347Z,8.35
2019-05-06T21:43:02.848Z,8.45
2019-05-06T21:45:37.821Z,8.58
2019-05-06T21:48:05.185Z,8.45
2019-05-06T21:50:34.293Z,9.03
2019-05-06T21:53:03.478Z,8.93
2019-05-06T21:55:32.493Z,8.63
2019-05-06T21:58:02.137Z,7.92
2019-05-06T22:00:43.351Z,8.33
2019-05-06T22:03:13.410Z,8.55
2019-05-06T22:05:42.618Z,9.03
2019-05-06T22:08:12.902Z,8.00
2019-05-06T22:10:42.305Z,9.00
2019-05-06T22:13:14.241Z,8.38
2019-05-06T22:15:42.211Z,8.85
2019-05-06T22:18:12.475Z,7.75
2019-05-06T22:20:59.601Z,8.60
2019-05-06T22:23:30.007Z,9.35
2019-05-06T22:26:11.129Z,8.85
2019-05-06T22:28:29.341Z,9.13
2019-05-06T22:30:59.829Z,8.73
2019-05-06T22:33:28.607Z,10.18
2019-05-06T22:35:57.425Z,9.25
2019-05-06T22:38:26.240Z,9.08
2019-05-06T22:40:58.029Z,8.88
2019-05-06T22:43:26.920Z,8.85
2019-05-06T22:45:58.689Z,9.75
2019-05-06T22:48:27.685Z,9.20
2019-05-06T22:50:56.527Z,8.83
2019-05-06T22:53:25.423Z,9.18
2019-05-06T22:55:55.890Z,8.75
2019-05-06T22:58:24.690Z,9.23
2019-05-06T23:00:55.004Z,8.13
2019-05-06T23:03:34.588Z,9.00
2019-05-06T23:06:03.597Z,9.08
2019-05-06T23:08:32.604Z,8.58
2019-05-06T23:11:01.466Z,8.95
2019-05-06T23:13:34.249Z,9.03
2019-05-06T23:16:03.094Z,9.43
2019-05-06T23:18:32.094Z,9.55
2019-05-06T23:21:02.503Z,9.30
2019-05-06T23:23:40.339Z,9.85
2019-05-06T23:26:22.780Z,9.50
2019-05-06T23:28:53.839Z,8.95
2019-05-06T23:31:24.595Z,10.03
2019-05-06T23:33:53.444Z,9.65
2019-05-06T23:36:22.965Z,8.85
2019-05-06T23:39:28.085Z,8.73
2019-05-06T23:42:33.431Z,8.90
2019-05-06T23:45:38.730Z,9.53
2019-05-06T23:48:44.278Z,8.45
2019-05-06T23:51:49.870Z,9.73
2019-05-06T23:54:55.224Z,9.83
2019-05-06T23:57:24.885Z,8.68
2019-05-06T23:59:54.571Z,9.65
